Capitol Logistics 2937


KCVG
Cincinnati/Northern Kentucky International Airport
Covington, Kentucky, US
RKSI
Incheon International Airport
Seoul, , KR

Route Details

Aircraft Information
Primary: Boeing 747-400BCF
Backup: Boeing 777-200LRF
Route Data
Distance: 5909nm
Sched. Duration: 13h 52m
Avg. Duration: 21h 55m (+803m)
Times Flown: 1
Recm'd Route: JBNCH5 MIE ELX CMX YQT J513 YRL YNE NCA14 DUROT NCA14 APMAL NCA14 GKN ENM G583 MUNRI RUSOR T564 SUNIP T564 NAMUL A842 DIMOT G583 IKADA G583 MVE CHE V30 HWE Y12 TAPPI Z16 GNITS Z162 KAMSA L512 TENAS Y437 KAE Y697 SEL SEL1T
Planned Altitude: 28,000ft
Origin Wx: KCVG 291252Z 03016KT 2SM RA BR OVC006 11/09 A2963 RMK AO2 SLP031 CIG RGD P0016 T01060094
Dest. Wx: RKSI 291300Z 36006KT 330V030 CAVOK 11/M03 Q1024 NOSIG
Notes: OPERATED FOR POLAR AIR CARGO

Financial History
Total Freight: 33,285lbs
Average Load: 33,285lbs/flt
Fuel Used: 262,924lbs
Avg. Fuel Used: 262,924lbs/flt
Fuel Expense: $244,519
Avg. Fuel Expense: $244,519
Avg. Fuel Cost: $0.93/lbs
Total Gross Income: $139,464
Pilot Pay: $239
Total Expenses: $15,114
Total Revenue: $-125,850
Average Revenue: $139,464.16